sensor_id;sensor_type;location;lat;lon;timestamp;P1;durP1;ratioP1;P2;durP2;ratioP2
70122;SDS011;57489;37.404;24.920;2022-08-19T00:03:01;7.70;;;4.70;;
70122;SDS011;57489;37.404;24.920;2022-08-19T00:08:03;6.47;;;3.92;;
70122;SDS011;57489;37.404;24.920;2022-08-19T00:13:04;7.67;;;4.17;;
70122;SDS011;57489;37.404;24.920;2022-08-19T00:18:04;7.20;;;3.90;;
70122;SDS011;57489;37.404;24.920;2022-08-19T00:23:05;8.20;;;3.87;;
70122;SDS011;57489;37.404;24.920;2022-08-19T00:28:05;7.17;;;4.20;;
70122;SDS011;57489;37.404;24.920;2022-08-19T00:33:06;7.80;;;4.23;;
70122;SDS011;57489;37.404;24.920;2022-08-19T00:38:06;7.23;;;4.43;;
70122;SDS011;57489;37.404;24.920;2022-08-19T00:43:08;7.93;;;3.53;;
70122;SDS011;57489;37.404;24.920;2022-08-19T00:48:11;7.57;;;3.22;;
70122;SDS011;57489;37.404;24.920;2022-08-19T00:53:12;6.80;;;4.17;;
70122;SDS011;57489;37.404;24.920;2022-08-19T00:58:16;7.87;;;4.23;;
70122;SDS011;57489;37.404;24.920;2022-08-19T01:03:19;7.25;;;3.97;;
70122;SDS011;57489;37.404;24.920;2022-08-19T01:08:20;6.85;;;4.30;;
70122;SDS011;57489;37.404;24.920;2022-08-19T01:13:25;7.27;;;3.97;;
70122;SDS011;57489;37.404;24.920;2022-08-19T01:18:27;6.90;;;3.70;;
70122;SDS011;57489;37.404;24.920;2022-08-19T01:23:30;6.18;;;4.00;;
70122;SDS011;57489;37.404;24.920;2022-08-19T01:28:30;6.50;;;4.20;;
70122;SDS011;57489;37.404;24.920;2022-08-19T01:33:31;7.80;;;3.63;;
70122;SDS011;57489;37.404;24.920;2022-08-19T01:38:35;6.97;;;4.13;;
70122;SDS011;57489;37.404;24.920;2022-08-19T01:43:38;9.10;;;4.07;;
70122;SDS011;57489;37.404;24.920;2022-08-19T01:48:40;7.20;;;4.00;;
70122;SDS011;57489;37.404;24.920;2022-08-19T01:53:42;6.28;;;3.83;;
70122;SDS011;57489;37.404;24.920;2022-08-19T01:58:44;8.50;;;3.70;;
70122;SDS011;57489;37.404;24.920;2022-08-19T02:03:48;8.20;;;3.80;;
70122;SDS011;57489;37.404;24.920;2022-08-19T02:08:49;8.00;;;4.10;;
70122;SDS011;57489;37.404;24.920;2022-08-19T02:13:49;7.27;;;4.10;;
70122;SDS011;57489;37.404;24.920;2022-08-19T02:18:50;5.93;;;3.87;;
70122;SDS011;57489;37.404;24.920;2022-08-19T02:23:51;8.10;;;4.18;;
70122;SDS011;57489;37.404;24.920;2022-08-19T02:28:52;7.23;;;3.83;;
70122;SDS011;57489;37.404;24.920;2022-08-19T02:33:53;8.33;;;4.23;;
70122;SDS011;57489;37.404;24.920;2022-08-19T02:38:54;6.97;;;3.60;;
70122;SDS011;57489;37.404;24.920;2022-08-19T02:43:55;7.68;;;4.18;;
70122;SDS011;57489;37.404;24.920;2022-08-19T02:48:58;8.43;;;4.03;;
70122;SDS011;57489;37.404;24.920;2022-08-19T02:54:01;7.25;;;4.30;;
70122;SDS011;57489;37.404;24.920;2022-08-19T02:59:02;7.90;;;4.43;;
70122;SDS011;57489;37.404;24.920;2022-08-19T03:04:04;8.07;;;5.07;;
70122;SDS011;57489;37.404;24.920;2022-08-19T03:09:06;8.60;;;4.18;;
70122;SDS011;57489;37.404;24.920;2022-08-19T03:14:08;9.45;;;4.50;;
70122;SDS011;57489;37.404;24.920;2022-08-19T03:19:09;8.30;;;4.80;;
70122;SDS011;57489;37.404;24.920;2022-08-19T03:24:10;9.67;;;4.47;;
70122;SDS011;57489;37.404;24.920;2022-08-19T03:29:11;8.50;;;5.60;;
70122;SDS011;57489;37.404;24.920;2022-08-19T03:34:13;8.05;;;4.88;;
70122;SDS011;57489;37.404;24.920;2022-08-19T03:39:16;9.35;;;5.40;;
70122;SDS011;57489;37.404;24.920;2022-08-19T03:44:18;7.93;;;4.30;;
70122;SDS011;57489;37.404;24.920;2022-08-19T03:49:21;9.50;;;4.63;;
70122;SDS011;57489;37.404;24.920;2022-08-19T03:54:24;8.43;;;4.95;;
70122;SDS011;57489;37.404;24.920;2022-08-19T03:59:29;8.67;;;5.17;;
70122;SDS011;57489;37.404;24.920;2022-08-19T04:04:32;7.23;;;5.10;;
70122;SDS011;57489;37.404;24.920;2022-08-19T04:09:33;8.37;;;5.20;;
70122;SDS011;57489;37.404;24.920;2022-08-19T04:14:34;9.07;;;5.30;;
70122;SDS011;57489;37.404;24.920;2022-08-19T04:19:35;9.63;;;5.00;;
70122;SDS011;57489;37.404;24.920;2022-08-19T04:24:36;11.50;;;5.40;;
70122;SDS011;57489;37.404;24.920;2022-08-19T04:29:37;14.32;;;5.25;;
70122;SDS011;57489;37.404;24.920;2022-08-19T04:34:37;8.10;;;5.40;;
70122;SDS011;57489;37.404;24.920;2022-08-19T04:39:38;7.73;;;4.60;;
70122;SDS011;57489;37.404;24.920;2022-08-19T04:44:39;12.25;;;5.20;;
70122;SDS011;57489;37.404;24.920;2022-08-19T04:49:39;8.40;;;4.60;;
70122;SDS011;57489;37.404;24.920;2022-08-19T04:54:40;7.63;;;5.03;;
70122;SDS011;57489;37.404;24.920;2022-08-19T04:59:40;7.67;;;5.40;;
70122;SDS011;57489;37.404;24.920;2022-08-19T05:04:41;9.80;;;5.30;;
70122;SDS011;57489;37.404;24.920;2022-08-19T05:09:41;8.73;;;5.35;;
70122;SDS011;57489;37.404;24.920;2022-08-19T05:14:42;8.23;;;4.70;;
70122;SDS011;57489;37.404;24.920;2022-08-19T05:19:43;9.07;;;5.47;;
70122;SDS011;57489;37.404;24.920;2022-08-19T05:24:44;8.75;;;5.05;;
70122;SDS011;57489;37.404;24.920;2022-08-19T05:29:44;10.03;;;4.90;;
70122;SDS011;57489;37.404;24.920;2022-08-19T05:34:44;7.37;;;5.10;;
70122;SDS011;57489;37.404;24.920;2022-08-19T05:39:45;7.50;;;4.97;;
70122;SDS011;57489;37.404;24.920;2022-08-19T05:44:46;8.27;;;5.67;;
70122;SDS011;57489;37.404;24.920;2022-08-19T05:49:47;9.20;;;5.50;;
70122;SDS011;57489;37.404;24.920;2022-08-19T05:54:48;8.95;;;5.00;;
70122;SDS011;57489;37.404;24.920;2022-08-19T05:59:48;9.00;;;5.10;;
70122;SDS011;57489;37.404;24.920;2022-08-19T06:04:50;9.40;;;5.05;;
70122;SDS011;57489;37.404;24.920;2022-08-19T06:09:50;7.80;;;5.00;;
70122;SDS011;57489;37.404;24.920;2022-08-19T06:14:51;10.00;;;5.03;;
70122;SDS011;57489;37.404;24.920;2022-08-19T06:19:51;8.53;;;4.53;;
70122;SDS011;57489;37.404;24.920;2022-08-19T06:24:52;7.47;;;5.37;;
70122;SDS011;57489;37.404;24.920;2022-08-19T06:29:53;7.63;;;5.40;;
70122;SDS011;57489;37.404;24.920;2022-08-19T06:34:54;9.80;;;5.10;;
70122;SDS011;57489;37.404;24.920;2022-08-19T06:39:54;8.20;;;5.10;;
70122;SDS011;57489;37.404;24.920;2022-08-19T06:44:55;6.87;;;4.67;;
70122;SDS011;57489;37.404;24.920;2022-08-19T06:49:56;8.20;;;4.83;;
70122;SDS011;57489;37.404;24.920;2022-08-19T06:54:57;8.93;;;4.60;;
70122;SDS011;57489;37.404;24.920;2022-08-19T06:59:58;7.53;;;5.43;;
70122;SDS011;57489;37.404;24.920;2022-08-19T07:04:58;7.65;;;5.03;;
70122;SDS011;57489;37.404;24.920;2022-08-19T07:09:59;7.40;;;4.07;;
70122;SDS011;57489;37.404;24.920;2022-08-19T07:14:59;9.63;;;4.73;;
70122;SDS011;57489;37.404;24.920;2022-08-19T07:20:00;10.03;;;5.93;;
70122;SDS011;57489;37.404;24.920;2022-08-19T07:25:02;8.75;;;4.50;;
70122;SDS011;57489;37.404;24.920;2022-08-19T07:30:03;8.95;;;5.65;;
70122;SDS011;57489;37.404;24.920;2022-08-19T07:35:03;7.80;;;5.30;;
70122;SDS011;57489;37.404;24.920;2022-08-19T07:40:05;7.38;;;4.97;;
70122;SDS011;57489;37.404;24.920;2022-08-19T07:45:07;7.20;;;4.80;;
70122;SDS011;57489;37.404;24.920;2022-08-19T07:50:09;9.27;;;4.93;;
70122;SDS011;57489;37.404;24.920;2022-08-19T07:55:10;6.90;;;4.60;;
70122;SDS011;57489;37.404;24.920;2022-08-19T08:00:11;9.95;;;5.03;;
70122;SDS011;57489;37.404;24.920;2022-08-19T08:05:12;9.23;;;4.60;;
70122;SDS011;57489;37.404;24.920;2022-08-19T08:10:13;7.13;;;4.47;;
70122;SDS011;57489;37.404;24.920;2022-08-19T08:15:14;7.27;;;4.50;;
70122;SDS011;57489;37.404;24.920;2022-08-19T08:20:16;8.27;;;5.47;;
70122;SDS011;57489;37.404;24.920;2022-08-19T08:25:18;8.27;;;4.65;;
70122;SDS011;57489;37.404;24.920;2022-08-19T08:30:21;8.00;;;4.90;;
70122;SDS011;57489;37.404;24.920;2022-08-19T08:35:23;8.73;;;5.37;;
70122;SDS011;57489;37.404;24.920;2022-08-19T08:45:47;11.20;;;5.15;;
70122;SDS011;57489;37.404;24.920;2022-08-19T08:50:54;9.18;;;4.82;;
70122;SDS011;57489;37.404;24.920;2022-08-19T08:55:57;9.03;;;5.03;;
70122;SDS011;57489;37.404;24.920;2022-08-19T09:01:01;8.07;;;4.93;;
70122;SDS011;57489;37.404;24.920;2022-08-19T09:06:03;12.02;;;4.78;;
70122;SDS011;57489;37.404;24.920;2022-08-19T09:16:36;11.80;;;5.25;;
70122;SDS011;57489;37.404;24.920;2022-08-19T09:21:36;12.03;;;5.20;;
70122;SDS011;57489;37.404;24.920;2022-08-19T09:26:37;10.40;;;4.57;;
70122;SDS011;57489;37.404;24.920;2022-08-19T09:31:37;8.57;;;4.97;;
70122;SDS011;57489;37.404;24.920;2022-08-19T09:36:38;8.17;;;4.53;;
70122;SDS011;57489;37.404;24.920;2022-08-19T09:41:39;8.33;;;5.37;;
70122;SDS011;57489;37.404;24.920;2022-08-19T09:46:39;7.67;;;4.57;;
70122;SDS011;57489;37.404;24.920;2022-08-19T09:51:42;7.93;;;4.80;;
70122;SDS011;57489;37.404;24.920;2022-08-19T09:56:43;8.40;;;4.93;;
70122;SDS011;57489;37.404;24.920;2022-08-19T10:01:43;11.37;;;4.80;;
70122;SDS011;57489;37.404;24.920;2022-08-19T10:06:44;10.00;;;5.25;;
70122;SDS011;57489;37.404;24.920;2022-08-19T10:11:45;9.90;;;5.07;;
70122;SDS011;57489;37.404;24.920;2022-08-19T10:16:45;8.90;;;4.75;;
70122;SDS011;57489;37.404;24.920;2022-08-19T10:21:46;8.00;;;4.57;;
70122;SDS011;57489;37.404;24.920;2022-08-19T10:26:48;6.13;;;4.50;;
70122;SDS011;57489;37.404;24.920;2022-08-19T10:31:48;8.50;;;4.53;;
70122;SDS011;57489;37.404;24.920;2022-08-19T10:36:49;7.63;;;4.70;;
70122;SDS011;57489;37.404;24.920;2022-08-19T10:41:49;8.40;;;4.40;;
70122;SDS011;57489;37.404;24.920;2022-08-19T10:46:50;7.50;;;5.03;;
70122;SDS011;57489;37.404;24.920;2022-08-19T10:51:51;7.57;;;4.77;;
70122;SDS011;57489;37.404;24.920;2022-08-19T10:56:51;9.30;;;5.10;;
70122;SDS011;57489;37.404;24.920;2022-08-19T11:01:52;8.80;;;4.67;;
70122;SDS011;57489;37.404;24.920;2022-08-19T11:06:53;7.37;;;4.80;;
70122;SDS011;57489;37.404;24.920;2022-08-19T11:11:53;7.47;;;4.80;;
70122;SDS011;57489;37.404;24.920;2022-08-19T11:16:54;7.10;;;5.10;;
70122;SDS011;57489;37.404;24.920;2022-08-19T11:21:56;7.13;;;4.70;;
70122;SDS011;57489;37.404;24.920;2022-08-19T11:27:03;8.00;;;4.93;;
70122;SDS011;57489;37.404;24.920;2022-08-19T11:32:07;7.53;;;5.20;;
70122;SDS011;57489;37.404;24.920;2022-08-19T11:37:09;7.47;;;4.20;;
70122;SDS011;57489;37.404;24.920;2022-08-19T11:42:10;9.03;;;4.97;;
70122;SDS011;57489;37.404;24.920;2022-08-19T11:47:11;8.65;;;4.45;;
70122;SDS011;57489;37.404;24.920;2022-08-19T11:52:11;9.17;;;4.50;;
70122;SDS011;57489;37.404;24.920;2022-08-19T11:57:11;7.63;;;4.27;;
70122;SDS011;57489;37.404;24.920;2022-08-19T12:02:13;7.43;;;4.97;;
70122;SDS011;57489;37.404;24.920;2022-08-19T12:07:14;9.65;;;4.85;;
70122;SDS011;57489;37.404;24.920;2022-08-19T12:12:15;10.70;;;4.87;;
70122;SDS011;57489;37.404;24.920;2022-08-19T12:17:16;8.93;;;4.20;;
70122;SDS011;57489;37.404;24.920;2022-08-19T12:22:17;9.07;;;4.83;;
70122;SDS011;57489;37.404;24.920;2022-08-19T12:27:18;8.77;;;4.80;;
70122;SDS011;57489;37.404;24.920;2022-08-19T12:32:19;8.47;;;4.83;;
70122;SDS011;57489;37.404;24.920;2022-08-19T12:37:19;7.40;;;4.80;;
70122;SDS011;57489;37.404;24.920;2022-08-19T12:42:20;8.83;;;4.97;;
70122;SDS011;57489;37.404;24.920;2022-08-19T12:47:21;8.57;;;5.03;;
70122;SDS011;57489;37.404;24.920;2022-08-19T12:52:23;8.50;;;4.70;;
70122;SDS011;57489;37.404;24.920;2022-08-19T12:57:25;8.27;;;4.82;;
70122;SDS011;57489;37.404;24.920;2022-08-19T13:02:27;8.13;;;4.80;;
70122;SDS011;57489;37.404;24.920;2022-08-19T13:07:27;6.53;;;4.43;;
70122;SDS011;57489;37.404;24.920;2022-08-19T13:12:28;7.07;;;4.53;;
70122;SDS011;57489;37.404;24.920;2022-08-19T13:17:29;8.95;;;4.75;;
70122;SDS011;57489;37.404;24.920;2022-08-19T13:22:30;9.40;;;4.93;;
70122;SDS011;57489;37.404;24.920;2022-08-19T13:27:30;8.73;;;4.67;;
70122;SDS011;57489;37.404;24.920;2022-08-19T13:32:31;7.45;;;4.57;;
70122;SDS011;57489;37.404;24.920;2022-08-19T13:37:32;9.07;;;5.00;;
70122;SDS011;57489;37.404;24.920;2022-08-19T13:42:32;8.20;;;4.90;;
70122;SDS011;57489;37.404;24.920;2022-08-19T13:47:33;7.70;;;4.60;;
70122;SDS011;57489;37.404;24.920;2022-08-19T13:52:34;8.98;;;4.40;;
70122;SDS011;57489;37.404;24.920;2022-08-19T13:57:35;9.00;;;4.40;;
70122;SDS011;57489;37.404;24.920;2022-08-19T14:02:37;8.60;;;4.80;;
70122;SDS011;57489;37.404;24.920;2022-08-19T14:07:38;9.00;;;4.63;;
70122;SDS011;57489;37.404;24.920;2022-08-19T14:12:39;8.47;;;4.87;;
70122;SDS011;57489;37.404;24.920;2022-08-19T14:17:41;7.07;;;4.72;;
70122;SDS011;57489;37.404;24.920;2022-08-19T14:22:43;6.70;;;4.40;;
70122;SDS011;57489;37.404;24.920;2022-08-19T14:27:45;7.28;;;4.68;;
70122;SDS011;57489;37.404;24.920;2022-08-19T14:32:46;7.13;;;4.65;;
70122;SDS011;57489;37.404;24.920;2022-08-19T14:37:47;8.33;;;5.40;;
70122;SDS011;57489;37.404;24.920;2022-08-19T14:42:48;8.95;;;4.88;;
70122;SDS011;57489;37.404;24.920;2022-08-19T14:47:50;8.73;;;4.70;;
70122;SDS011;57489;37.404;24.920;2022-08-19T14:52:56;9.50;;;6.07;;
70122;SDS011;57489;37.404;24.920;2022-08-19T14:57:59;8.05;;;4.90;;
70122;SDS011;57489;37.404;24.920;2022-08-19T15:03:00;10.98;;;4.93;;
70122;SDS011;57489;37.404;24.920;2022-08-19T15:08:03;10.50;;;4.53;;
70122;SDS011;57489;37.404;24.920;2022-08-19T15:13:04;8.10;;;4.47;;
70122;SDS011;57489;37.404;24.920;2022-08-19T15:18:04;6.63;;;4.45;;
70122;SDS011;57489;37.404;24.920;2022-08-19T15:23:05;9.43;;;4.90;;
70122;SDS011;57489;37.404;24.920;2022-08-19T15:28:06;7.67;;;4.60;;
70122;SDS011;57489;37.404;24.920;2022-08-19T15:33:07;9.32;;;5.50;;
70122;SDS011;57489;37.404;24.920;2022-08-19T15:38:08;9.00;;;4.67;;
70122;SDS011;57489;37.404;24.920;2022-08-19T15:43:08;10.38;;;5.32;;
70122;SDS011;57489;37.404;24.920;2022-08-19T15:48:09;8.57;;;5.00;;
70122;SDS011;57489;37.404;24.920;2022-08-19T15:53:10;8.43;;;4.77;;
70122;SDS011;57489;37.404;24.920;2022-08-19T15:58:11;7.65;;;4.80;;
70122;SDS011;57489;37.404;24.920;2022-08-19T16:03:13;8.70;;;4.47;;
70122;SDS011;57489;37.404;24.920;2022-08-19T16:08:14;7.05;;;4.57;;
70122;SDS011;57489;37.404;24.920;2022-08-19T16:13:14;7.97;;;4.90;;
70122;SDS011;57489;37.404;24.920;2022-08-19T16:18:15;9.53;;;5.10;;
70122;SDS011;57489;37.404;24.920;2022-08-19T16:23:15;7.13;;;4.50;;
70122;SDS011;57489;37.404;24.920;2022-08-19T16:28:18;6.90;;;4.18;;
70122;SDS011;57489;37.404;24.920;2022-08-19T16:33:18;8.87;;;4.77;;
70122;SDS011;57489;37.404;24.920;2022-08-19T16:38:19;9.40;;;4.53;;
70122;SDS011;57489;37.404;24.920;2022-08-19T16:43:20;8.93;;;4.80;;
70122;SDS011;57489;37.404;24.920;2022-08-19T16:48:21;8.00;;;4.60;;
70122;SDS011;57489;37.404;24.920;2022-08-19T16:53:24;7.90;;;4.93;;
70122;SDS011;57489;37.404;24.920;2022-08-19T16:58:26;7.83;;;4.53;;
70122;SDS011;57489;37.404;24.920;2022-08-19T17:03:27;7.32;;;4.75;;
70122;SDS011;57489;37.404;24.920;2022-08-19T17:08:29;23.92;;;8.57;;
70122;SDS011;57489;37.404;24.920;2022-08-19T17:13:32;20.80;;;7.70;;
70122;SDS011;57489;37.404;24.920;2022-08-19T17:18:33;13.67;;;6.17;;
70122;SDS011;57489;37.404;24.920;2022-08-19T17:23:33;14.20;;;5.80;;
70122;SDS011;57489;37.404;24.920;2022-08-19T17:28:34;11.23;;;5.43;;
70122;SDS011;57489;37.404;24.920;2022-08-19T17:33:35;14.47;;;6.00;;
70122;SDS011;57489;37.404;24.920;2022-08-19T17:38:35;16.13;;;5.80;;
70122;SDS011;57489;37.404;24.920;2022-08-19T17:43:36;10.85;;;5.40;;
70122;SDS011;57489;37.404;24.920;2022-08-19T17:48:37;9.83;;;5.47;;
70122;SDS011;57489;37.404;24.920;2022-08-19T17:53:37;8.38;;;5.53;;
70122;SDS011;57489;37.404;24.920;2022-08-19T17:58:39;9.10;;;4.90;;
70122;SDS011;57489;37.404;24.920;2022-08-19T18:03:40;9.93;;;4.60;;
70122;SDS011;57489;37.404;24.920;2022-08-19T18:08:42;10.45;;;5.20;;
70122;SDS011;57489;37.404;24.920;2022-08-19T18:13:43;9.05;;;4.85;;
70122;SDS011;57489;37.404;24.920;2022-08-19T18:18:43;10.57;;;5.23;;
70122;SDS011;57489;37.404;24.920;2022-08-19T18:23:44;8.07;;;4.77;;
70122;SDS011;57489;37.404;24.920;2022-08-19T18:28:44;7.23;;;4.70;;
70122;SDS011;57489;37.404;24.920;2022-08-19T18:33:45;9.30;;;4.93;;
70122;SDS011;57489;37.404;24.920;2022-08-19T18:38:46;8.40;;;5.05;;
70122;SDS011;57489;37.404;24.920;2022-08-19T18:43:46;7.80;;;4.77;;
70122;SDS011;57489;37.404;24.920;2022-08-19T18:48:47;11.52;;;5.50;;
70122;SDS011;57489;37.404;24.920;2022-08-19T18:53:48;13.13;;;5.23;;
70122;SDS011;57489;37.404;24.920;2022-08-19T18:58:49;10.93;;;4.93;;
70122;SDS011;57489;37.404;24.920;2022-08-19T19:03:50;8.13;;;5.17;;
70122;SDS011;57489;37.404;24.920;2022-08-19T19:08:52;10.10;;;5.43;;
70122;SDS011;57489;37.404;24.920;2022-08-19T19:13:53;12.90;;;5.10;;
70122;SDS011;57489;37.404;24.920;2022-08-19T19:18:54;9.80;;;5.93;;
70122;SDS011;57489;37.404;24.920;2022-08-19T19:23:55;13.27;;;5.67;;
70122;SDS011;57489;37.404;24.920;2022-08-19T19:28:55;9.23;;;5.37;;
70122;SDS011;57489;37.404;24.920;2022-08-19T19:33:56;10.53;;;5.30;;
70122;SDS011;57489;37.404;24.920;2022-08-19T19:38:57;8.07;;;5.33;;
70122;SDS011;57489;37.404;24.920;2022-08-19T19:43:58;10.30;;;5.07;;
70122;SDS011;57489;37.404;24.920;2022-08-19T19:48:59;9.03;;;5.20;;
70122;SDS011;57489;37.404;24.920;2022-08-19T19:54:00;7.55;;;4.60;;
70122;SDS011;57489;37.404;24.920;2022-08-19T19:59:01;7.87;;;4.80;;
70122;SDS011;57489;37.404;24.920;2022-08-19T20:04:01;9.37;;;4.53;;
70122;SDS011;57489;37.404;24.920;2022-08-19T20:09:02;7.40;;;4.90;;
70122;SDS011;57489;37.404;24.920;2022-08-19T20:14:04;10.10;;;4.80;;
70122;SDS011;57489;37.404;24.920;2022-08-19T20:19:08;8.55;;;5.07;;
70122;SDS011;57489;37.404;24.920;2022-08-19T20:24:11;10.73;;;6.17;;
70122;SDS011;57489;37.404;24.920;2022-08-19T20:29:15;10.50;;;5.70;;
70122;SDS011;57489;37.404;24.920;2022-08-19T20:34:17;7.97;;;5.45;;
70122;SDS011;57489;37.404;24.920;2022-08-19T20:39:18;8.25;;;6.10;;
70122;SDS011;57489;37.404;24.920;2022-08-19T20:44:19;9.63;;;6.13;;
70122;SDS011;57489;37.404;24.920;2022-08-19T20:49:19;9.77;;;6.60;;
70122;SDS011;57489;37.404;24.920;2022-08-19T20:54:20;11.73;;;7.10;;
70122;SDS011;57489;37.404;24.920;2022-08-19T20:59:20;8.93;;;6.33;;
70122;SDS011;57489;37.404;24.920;2022-08-19T21:04:22;9.90;;;6.47;;
70122;SDS011;57489;37.404;24.920;2022-08-19T21:09:22;11.70;;;6.40;;
70122;SDS011;57489;37.404;24.920;2022-08-19T21:14:24;10.77;;;6.65;;
70122;SDS011;57489;37.404;24.920;2022-08-19T21:19:24;10.83;;;7.43;;
70122;SDS011;57489;37.404;24.920;2022-08-19T21:24:25;10.50;;;7.43;;
70122;SDS011;57489;37.404;24.920;2022-08-19T21:29:25;11.50;;;7.13;;
70122;SDS011;57489;37.404;24.920;2022-08-19T21:34:26;9.93;;;6.40;;
70122;SDS011;57489;37.404;24.920;2022-08-19T21:39:27;11.17;;;6.33;;
70122;SDS011;57489;37.404;24.920;2022-08-19T21:44:28;9.95;;;7.07;;
70122;SDS011;57489;37.404;24.920;2022-08-19T21:49:28;10.77;;;6.13;;
70122;SDS011;57489;37.404;24.920;2022-08-19T21:54:29;9.37;;;6.53;;
70122;SDS011;57489;37.404;24.920;2022-08-19T21:59:31;12.90;;;6.05;;
70122;SDS011;57489;37.404;24.920;2022-08-19T22:04:32;9.60;;;6.77;;
70122;SDS011;57489;37.404;24.920;2022-08-19T22:09:33;9.15;;;5.93;;
70122;SDS011;57489;37.404;24.920;2022-08-19T22:14:34;9.13;;;5.67;;
70122;SDS011;57489;37.404;24.920;2022-08-19T22:19:35;8.93;;;5.78;;
70122;SDS011;57489;37.404;24.920;2022-08-19T22:24:36;8.33;;;5.27;;
70122;SDS011;57489;37.404;24.920;2022-08-19T22:29:36;8.27;;;5.43;;
70122;SDS011;57489;37.404;24.920;2022-08-19T22:34:37;7.70;;;5.60;;
70122;SDS011;57489;37.404;24.920;2022-08-19T22:39:37;8.00;;;5.20;;
70122;SDS011;57489;37.404;24.920;2022-08-19T22:44:38;8.32;;;5.60;;
70122;SDS011;57489;37.404;24.920;2022-08-19T22:49:38;9.00;;;5.70;;
70122;SDS011;57489;37.404;24.920;2022-08-19T22:54:39;10.43;;;5.87;;
70122;SDS011;57489;37.404;24.920;2022-08-19T22:59:40;8.83;;;5.40;;
70122;SDS011;57489;37.404;24.920;2022-08-19T23:04:40;10.63;;;5.80;;
70122;SDS011;57489;37.404;24.920;2022-08-19T23:09:41;8.63;;;5.13;;
70122;SDS011;57489;37.404;24.920;2022-08-19T23:14:42;8.15;;;5.50;;
70122;SDS011;57489;37.404;24.920;2022-08-19T23:19:43;10.40;;;5.73;;
70122;SDS011;57489;37.404;24.920;2022-08-19T23:24:43;9.93;;;5.83;;
70122;SDS011;57489;37.404;24.920;2022-08-19T23:29:44;9.20;;;5.40;;
70122;SDS011;57489;37.404;24.920;2022-08-19T23:34:44;9.47;;;5.87;;
70122;SDS011;57489;37.404;24.920;2022-08-19T23:39:45;10.20;;;5.70;;
70122;SDS011;57489;37.404;24.920;2022-08-19T23:44:45;9.93;;;6.10;;
70122;SDS011;57489;37.404;24.920;2022-08-19T23:49:46;8.40;;;5.67;;
70122;SDS011;57489;37.404;24.920;2022-08-19T23:54:46;8.13;;;5.53;;
70122;SDS011;57489;37.404;24.920;2022-08-19T23:59:47;10.68;;;5.63;;
